sensor_id;sensor_type;location;lat;lon;timestamp;P1;durP1;ratioP1;P2;durP2;ratioP2
36449;SDS011;22475;51.390;7.180;2023-12-14T00:01:37;21.40;;;12.63;;
36449;SDS011;22475;51.390;7.180;2023-12-14T00:04:05;17.17;;;11.52;;
36449;SDS011;22475;51.390;7.180;2023-12-14T00:06:31;18.65;;;11.27;;
36449;SDS011;22475;51.390;7.180;2023-12-14T00:08:58;17.42;;;10.95;;
36449;SDS011;22475;51.390;7.180;2023-12-14T00:11:26;14.40;;;10.45;;
36449;SDS011;22475;51.390;7.180;2023-12-14T00:13:53;19.25;;;10.32;;
36449;SDS011;22475;51.390;7.180;2023-12-14T00:16:20;16.38;;;10.77;;
36449;SDS011;22475;51.390;7.180;2023-12-14T00:18:46;16.67;;;10.43;;
36449;SDS011;22475;51.390;7.180;2023-12-14T00:21:13;15.63;;;11.32;;
36449;SDS011;22475;51.390;7.180;2023-12-14T00:23:40;15.88;;;10.18;;
36449;SDS011;22475;51.390;7.180;2023-12-14T00:26:07;20.85;;;10.70;;
36449;SDS011;22475;51.390;7.180;2023-12-14T00:28:35;15.90;;;11.57;;
36449;SDS011;22475;51.390;7.180;2023-12-14T00:31:01;23.30;;;12.77;;
36449;SDS011;22475;51.390;7.180;2023-12-14T00:33:28;16.80;;;10.90;;
36449;SDS011;22475;51.390;7.180;2023-12-14T00:35:55;13.65;;;10.48;;
36449;SDS011;22475;51.390;7.180;2023-12-14T00:38:22;15.45;;;10.52;;
36449;SDS011;22475;51.390;7.180;2023-12-14T00:40:48;14.25;;;11.10;;
36449;SDS011;22475;51.390;7.180;2023-12-14T00:43:15;16.02;;;10.35;;
36449;SDS011;22475;51.390;7.180;2023-12-14T00:45:43;14.57;;;10.07;;
36449;SDS011;22475;51.390;7.180;2023-12-14T00:48:10;17.23;;;10.02;;
36449;SDS011;22475;51.390;7.180;2023-12-14T00:50:37;13.10;;;9.35;;
36449;SDS011;22475;51.390;7.180;2023-12-14T00:53:04;11.85;;;8.82;;
36449;SDS011;22475;51.390;7.180;2023-12-14T00:55:31;12.98;;;8.70;;
36449;SDS011;22475;51.390;7.180;2023-12-14T00:57:57;13.43;;;9.95;;
36449;SDS011;22475;51.390;7.180;2023-12-14T01:00:24;13.82;;;10.20;;
36449;SDS011;22475;51.390;7.180;2023-12-14T01:02:52;13.57;;;10.43;;
36449;SDS011;22475;51.390;7.180;2023-12-14T01:05:19;16.92;;;11.25;;
36449;SDS011;22475;51.390;7.180;2023-12-14T01:07:46;14.50;;;10.98;;
36449;SDS011;22475;51.390;7.180;2023-12-14T01:10:12;15.57;;;11.90;;
36449;SDS011;22475;51.390;7.180;2023-12-14T01:12:39;13.60;;;10.88;;
36449;SDS011;22475;51.390;7.180;2023-12-14T01:15:06;16.25;;;10.75;;
36449;SDS011;22475;51.390;7.180;2023-12-14T01:17:33;15.02;;;9.50;;
36449;SDS011;22475;51.390;7.180;2023-12-14T01:20:04;14.23;;;10.43;;
36449;SDS011;22475;51.390;7.180;2023-12-14T01:22:32;10.43;;;7.93;;
36449;SDS011;22475;51.390;7.180;2023-12-14T01:24:59;13.90;;;8.15;;
36449;SDS011;22475;51.390;7.180;2023-12-14T01:27:25;15.43;;;9.55;;
36449;SDS011;22475;51.390;7.180;2023-12-14T01:29:52;10.25;;;7.70;;
36449;SDS011;22475;51.390;7.180;2023-12-14T01:32:19;14.43;;;8.10;;
36449;SDS011;22475;51.390;7.180;2023-12-14T01:34:46;13.27;;;8.55;;
36449;SDS011;22475;51.390;7.180;2023-12-14T01:37:14;10.27;;;8.25;;
36449;SDS011;22475;51.390;7.180;2023-12-14T01:39:41;14.70;;;8.23;;
36449;SDS011;22475;51.390;7.180;2023-12-14T01:42:07;11.13;;;8.00;;
36449;SDS011;22475;51.390;7.180;2023-12-14T01:44:34;11.82;;;7.28;;
36449;SDS011;22475;51.390;7.180;2023-12-14T01:47:01;7.40;;;6.70;;
36449;SDS011;22475;51.390;7.180;2023-12-14T01:49:28;6.20;;;5.70;;
36449;SDS011;22475;51.390;7.180;2023-12-14T01:51:54;7.05;;;6.38;;
36449;SDS011;22475;51.390;7.180;2023-12-14T01:54:22;8.55;;;6.47;;
36449;SDS011;22475;51.390;7.180;2023-12-14T01:56:49;6.78;;;6.18;;
36449;SDS011;22475;51.390;7.180;2023-12-14T01:59:16;5.93;;;5.25;;
36449;SDS011;22475;51.390;7.180;2023-12-14T02:01:43;7.85;;;6.25;;
36449;SDS011;22475;51.390;7.180;2023-12-14T02:04:11;5.80;;;5.35;;
36449;SDS011;22475;51.390;7.180;2023-12-14T02:06:38;6.13;;;5.57;;
36449;SDS011;22475;51.390;7.180;2023-12-14T02:09:06;5.60;;;5.10;;
36449;SDS011;22475;51.390;7.180;2023-12-14T02:11:34;5.05;;;4.55;;
36449;SDS011;22475;51.390;7.180;2023-12-14T02:14:03;5.15;;;4.72;;
36449;SDS011;22475;51.390;7.180;2023-12-14T02:16:30;4.07;;;3.78;;
36449;SDS011;22475;51.390;7.180;2023-12-14T02:18:57;4.70;;;4.30;;
36449;SDS011;22475;51.390;7.180;2023-12-14T02:21:24;4.95;;;4.55;;
36449;SDS011;22475;51.390;7.180;2023-12-14T02:23:52;4.68;;;4.38;;
36449;SDS011;22475;51.390;7.180;2023-12-14T02:26:19;4.30;;;3.90;;
36449;SDS011;22475;51.390;7.180;2023-12-14T02:28:46;4.57;;;4.10;;
36449;SDS011;22475;51.390;7.180;2023-12-14T02:31:12;4.38;;;4.07;;
36449;SDS011;22475;51.390;7.180;2023-12-14T02:33:39;4.43;;;4.07;;
36449;SDS011;22475;51.390;7.180;2023-12-14T02:36:06;4.57;;;4.18;;
36449;SDS011;22475;51.390;7.180;2023-12-14T02:38:33;4.70;;;4.20;;
36449;SDS011;22475;51.390;7.180;2023-12-14T02:41:02;5.25;;;4.75;;
36449;SDS011;22475;51.390;7.180;2023-12-14T02:43:28;4.97;;;4.55;;
36449;SDS011;22475;51.390;7.180;2023-12-14T02:45:55;5.43;;;4.93;;
36449;SDS011;22475;51.390;7.180;2023-12-14T02:48:26;4.93;;;4.55;;
36449;SDS011;22475;51.390;7.180;2023-12-14T02:50:53;6.25;;;5.00;;
36449;SDS011;22475;51.390;7.180;2023-12-14T02:53:20;5.43;;;5.00;;
36449;SDS011;22475;51.390;7.180;2023-12-14T02:55:47;8.77;;;4.75;;
36449;SDS011;22475;51.390;7.180;2023-12-14T02:58:15;5.28;;;4.70;;
36449;SDS011;22475;51.390;7.180;2023-12-14T03:00:42;6.93;;;4.63;;
36449;SDS011;22475;51.390;7.180;2023-12-14T03:03:08;4.45;;;4.05;;
36449;SDS011;22475;51.390;7.180;2023-12-14T03:05:36;5.28;;;4.78;;
36449;SDS011;22475;51.390;7.180;2023-12-14T03:08:02;5.85;;;5.25;;
36449;SDS011;22475;51.390;7.180;2023-12-14T03:10:29;8.32;;;7.53;;
36449;SDS011;22475;51.390;7.180;2023-12-14T03:12:56;10.27;;;7.30;;
36449;SDS011;22475;51.390;7.180;2023-12-14T03:15:24;8.85;;;7.78;;
36449;SDS011;22475;51.390;7.180;2023-12-14T03:17:51;9.80;;;7.68;;
36449;SDS011;22475;51.390;7.180;2023-12-14T03:20:18;12.27;;;8.20;;
36449;SDS011;22475;51.390;7.180;2023-12-14T03:22:44;9.93;;;7.82;;
36449;SDS011;22475;51.390;7.180;2023-12-14T03:25:11;10.50;;;7.55;;
36449;SDS011;22475;51.390;7.180;2023-12-14T03:27:39;10.25;;;7.57;;
36449;SDS011;22475;51.390;7.180;2023-12-14T03:30:06;12.88;;;7.40;;
36449;SDS011;22475;51.390;7.180;2023-12-14T03:32:36;11.85;;;7.43;;
36449;SDS011;22475;51.390;7.180;2023-12-14T03:35:03;10.98;;;7.88;;
36449;SDS011;22475;51.390;7.180;2023-12-14T03:37:33;8.50;;;6.87;;
36449;SDS011;22475;51.390;7.180;2023-12-14T03:40:00;10.25;;;7.80;;
36449;SDS011;22475;51.390;7.180;2023-12-14T03:42:27;11.95;;;7.47;;
36449;SDS011;22475;51.390;7.180;2023-12-14T03:44:54;11.18;;;7.97;;
36449;SDS011;22475;51.390;7.180;2023-12-14T03:47:20;13.60;;;9.10;;
36449;SDS011;22475;51.390;7.180;2023-12-14T03:49:48;8.85;;;7.50;;
36449;SDS011;22475;51.390;7.180;2023-12-14T03:52:15;10.68;;;7.63;;
36449;SDS011;22475;51.390;7.180;2023-12-14T03:54:42;10.40;;;8.23;;
36449;SDS011;22475;51.390;7.180;2023-12-14T03:57:09;9.52;;;7.32;;
36449;SDS011;22475;51.390;7.180;2023-12-14T03:59:38;10.57;;;7.55;;
36449;SDS011;22475;51.390;7.180;2023-12-14T04:02:05;12.02;;;8.20;;
36449;SDS011;22475;51.390;7.180;2023-12-14T04:04:32;10.93;;;7.97;;
36449;SDS011;22475;51.390;7.180;2023-12-14T04:07:00;11.38;;;7.13;;
36449;SDS011;22475;51.390;7.180;2023-12-14T04:09:27;10.98;;;7.82;;
36449;SDS011;22475;51.390;7.180;2023-12-14T04:11:53;10.98;;;8.15;;
36449;SDS011;22475;51.390;7.180;2023-12-14T04:14:20;15.05;;;8.52;;
36449;SDS011;22475;51.390;7.180;2023-12-14T04:16:47;12.82;;;9.50;;
36449;SDS011;22475;51.390;7.180;2023-12-14T04:19:14;13.85;;;8.73;;
36449;SDS011;22475;51.390;7.180;2023-12-14T04:21:40;14.25;;;8.20;;
36449;SDS011;22475;51.390;7.180;2023-12-14T04:24:08;7.88;;;7.15;;
36449;SDS011;22475;51.390;7.180;2023-12-14T04:26:37;10.13;;;8.10;;
36449;SDS011;22475;51.390;7.180;2023-12-14T04:29:05;10.25;;;7.82;;
36449;SDS011;22475;51.390;7.180;2023-12-14T04:31:32;10.30;;;6.72;;
36449;SDS011;22475;51.390;7.180;2023-12-14T04:33:59;8.27;;;6.70;;
36449;SDS011;22475;51.390;7.180;2023-12-14T04:36:26;9.18;;;6.35;;
36449;SDS011;22475;51.390;7.180;2023-12-14T04:38:53;6.22;;;5.63;;
36449;SDS011;22475;51.390;7.180;2023-12-14T04:41:21;6.68;;;6.07;;
36449;SDS011;22475;51.390;7.180;2023-12-14T04:43:48;6.55;;;6.03;;
36449;SDS011;22475;51.390;7.180;2023-12-14T04:46:15;5.20;;;4.80;;
36449;SDS011;22475;51.390;7.180;2023-12-14T04:48:41;5.70;;;5.20;;
36449;SDS011;22475;51.390;7.180;2023-12-14T04:51:11;5.45;;;4.93;;
36449;SDS011;22475;51.390;7.180;2023-12-14T04:53:38;4.93;;;4.60;;
36449;SDS011;22475;51.390;7.180;2023-12-14T04:56:05;4.68;;;4.32;;
36449;SDS011;22475;51.390;7.180;2023-12-14T04:58:38;5.60;;;4.40;;
36449;SDS011;22475;51.390;7.180;2023-12-14T05:01:05;5.40;;;4.57;;
36449;SDS011;22475;51.390;7.180;2023-12-14T05:03:32;4.32;;;3.95;;
36449;SDS011;22475;51.390;7.180;2023-12-14T05:05:59;4.75;;;4.32;;
36449;SDS011;22475;51.390;7.180;2023-12-14T05:08:26;5.57;;;5.15;;
36449;SDS011;22475;51.390;7.180;2023-12-14T05:10:53;6.30;;;5.70;;
36449;SDS011;22475;51.390;7.180;2023-12-14T05:13:19;7.25;;;6.53;;
36449;SDS011;22475;51.390;7.180;2023-12-14T05:15:47;5.35;;;4.70;;
36449;SDS011;22475;51.390;7.180;2023-12-14T05:18:14;8.80;;;6.25;;
36449;SDS011;22475;51.390;7.180;2023-12-14T05:20:41;6.80;;;6.13;;
36449;SDS011;22475;51.390;7.180;2023-12-14T05:23:08;7.18;;;6.18;;
36449;SDS011;22475;51.390;7.180;2023-12-14T05:25:34;6.20;;;5.60;;
36449;SDS011;22475;51.390;7.180;2023-12-14T05:28:01;6.45;;;5.15;;
36449;SDS011;22475;51.390;7.180;2023-12-14T05:30:28;5.70;;;5.10;;
36449;SDS011;22475;51.390;7.180;2023-12-14T05:32:57;9.27;;;5.65;;
36449;SDS011;22475;51.390;7.180;2023-12-14T05:35:23;5.80;;;5.30;;
36449;SDS011;22475;51.390;7.180;2023-12-14T05:37:50;6.20;;;5.32;;
36449;SDS011;22475;51.390;7.180;2023-12-14T05:40:17;5.25;;;4.82;;
36449;SDS011;22475;51.390;7.180;2023-12-14T05:42:44;5.15;;;4.75;;
36449;SDS011;22475;51.390;7.180;2023-12-14T05:45:11;6.40;;;5.80;;
36449;SDS011;22475;51.390;7.180;2023-12-14T05:47:37;7.28;;;6.45;;
36449;SDS011;22475;51.390;7.180;2023-12-14T05:50:08;8.07;;;6.85;;
36449;SDS011;22475;51.390;7.180;2023-12-14T05:52:35;9.88;;;7.43;;
36449;SDS011;22475;51.390;7.180;2023-12-14T05:55:02;8.13;;;6.97;;
36449;SDS011;22475;51.390;7.180;2023-12-14T05:57:29;11.23;;;7.68;;
36449;SDS011;22475;51.390;7.180;2023-12-14T05:59:56;12.20;;;7.72;;
36449;SDS011;22475;51.390;7.180;2023-12-14T06:02:23;8.02;;;7.20;;
36449;SDS011;22475;51.390;7.180;2023-12-14T06:04:50;9.57;;;7.45;;
36449;SDS011;22475;51.390;7.180;2023-12-14T06:07:18;12.07;;;7.18;;
36449;SDS011;22475;51.390;7.180;2023-12-14T06:09:44;10.45;;;6.93;;
36449;SDS011;22475;51.390;7.180;2023-12-14T06:12:11;8.77;;;7.30;;
36449;SDS011;22475;51.390;7.180;2023-12-14T06:14:39;9.10;;;7.15;;
36449;SDS011;22475;51.390;7.180;2023-12-14T06:17:05;11.27;;;6.82;;
36449;SDS011;22475;51.390;7.180;2023-12-14T06:19:32;10.60;;;7.38;;
36449;SDS011;22475;51.390;7.180;2023-12-14T06:21:59;8.25;;;7.45;;
36449;SDS011;22475;51.390;7.180;2023-12-14T06:24:27;14.32;;;7.38;;
36449;SDS011;22475;51.390;7.180;2023-12-14T06:26:54;11.80;;;8.70;;
36449;SDS011;22475;51.390;7.180;2023-12-14T06:29:20;7.13;;;6.15;;
36449;SDS011;22475;51.390;7.180;2023-12-14T06:31:47;8.27;;;6.57;;
36449;SDS011;22475;51.390;7.180;2023-12-14T06:34:14;10.43;;;6.85;;
36449;SDS011;22475;51.390;7.180;2023-12-14T06:36:41;7.40;;;6.80;;
36449;SDS011;22475;51.390;7.180;2023-12-14T06:39:09;7.60;;;6.45;;
36449;SDS011;22475;51.390;7.180;2023-12-14T06:41:37;7.10;;;6.13;;
36449;SDS011;22475;51.390;7.180;2023-12-14T06:44:04;8.20;;;6.00;;
36449;SDS011;22475;51.390;7.180;2023-12-14T06:46:34;6.57;;;5.93;;
36449;SDS011;22475;51.390;7.180;2023-12-14T06:49:00;6.38;;;5.82;;
36449;SDS011;22475;51.390;7.180;2023-12-14T06:51:27;7.75;;;5.80;;
36449;SDS011;22475;51.390;7.180;2023-12-14T06:53:54;6.82;;;6.20;;
36449;SDS011;22475;51.390;7.180;2023-12-14T06:56:21;8.30;;;7.10;;
36449;SDS011;22475;51.390;7.180;2023-12-14T06:58:49;8.07;;;7.28;;
36449;SDS011;22475;51.390;7.180;2023-12-14T07:01:16;15.68;;;11.50;;
36449;SDS011;22475;51.390;7.180;2023-12-14T07:03:43;19.38;;;11.68;;
36449;SDS011;22475;51.390;7.180;2023-12-14T07:06:11;21.08;;;13.00;;
36449;SDS011;22475;51.390;7.180;2023-12-14T07:08:39;19.20;;;12.15;;
36449;SDS011;22475;51.390;7.180;2023-12-14T07:11:06;14.30;;;10.60;;
36449;SDS011;22475;51.390;7.180;2023-12-14T07:13:33;15.45;;;11.70;;
36449;SDS011;22475;51.390;7.180;2023-12-14T07:16:04;11.55;;;9.10;;
36449;SDS011;22475;51.390;7.180;2023-12-14T07:18:32;15.65;;;9.25;;
36449;SDS011;22475;51.390;7.180;2023-12-14T07:20:59;15.38;;;10.77;;
36449;SDS011;22475;51.390;7.180;2023-12-14T07:23:26;12.57;;;9.07;;
36449;SDS011;22475;51.390;7.180;2023-12-14T07:25:53;11.55;;;9.80;;
36449;SDS011;22475;51.390;7.180;2023-12-14T07:28:20;12.43;;;9.27;;
36449;SDS011;22475;51.390;7.180;2023-12-14T07:30:47;16.10;;;10.13;;
36449;SDS011;22475;51.390;7.180;2023-12-14T07:33:15;14.25;;;9.57;;
36449;SDS011;22475;51.390;7.180;2023-12-14T07:35:43;12.73;;;8.63;;
36449;SDS011;22475;51.390;7.180;2023-12-14T07:38:09;20.88;;;11.07;;
36449;SDS011;22475;51.390;7.180;2023-12-14T07:40:37;11.52;;;9.10;;
36449;SDS011;22475;51.390;7.180;2023-12-14T07:43:05;18.38;;;11.05;;
36449;SDS011;22475;51.390;7.180;2023-12-14T07:45:32;13.15;;;9.55;;
36449;SDS011;22475;51.390;7.180;2023-12-14T07:47:59;14.52;;;9.55;;
36449;SDS011;22475;51.390;7.180;2023-12-14T07:50:27;14.30;;;9.02;;
36449;SDS011;22475;51.390;7.180;2023-12-14T07:52:53;14.23;;;9.82;;
36449;SDS011;22475;51.390;7.180;2023-12-14T07:55:20;17.23;;;10.25;;
36449;SDS011;22475;51.390;7.180;2023-12-14T07:57:47;16.13;;;10.75;;
36449;SDS011;22475;51.390;7.180;2023-12-14T08:00:15;15.88;;;10.80;;
36449;SDS011;22475;51.390;7.180;2023-12-14T08:02:42;16.17;;;10.98;;
36449;SDS011;22475;51.390;7.180;2023-12-14T08:05:09;14.40;;;10.70;;
36449;SDS011;22475;51.390;7.180;2023-12-14T08:07:37;15.88;;;9.95;;
36449;SDS011;22475;51.390;7.180;2023-12-14T08:10:04;12.07;;;8.52;;
36449;SDS011;22475;51.390;7.180;2023-12-14T08:12:31;15.57;;;9.82;;
36449;SDS011;22475;51.390;7.180;2023-12-14T08:14:58;11.15;;;7.80;;
36449;SDS011;22475;51.390;7.180;2023-12-14T08:17:24;10.82;;;7.80;;
36449;SDS011;22475;51.390;7.180;2023-12-14T08:19:53;12.65;;;9.60;;
36449;SDS011;22475;51.390;7.180;2023-12-14T08:22:19;14.07;;;8.50;;
36449;SDS011;22475;51.390;7.180;2023-12-14T08:24:48;15.07;;;9.05;;
36449;SDS011;22475;51.390;7.180;2023-12-14T08:27:14;10.95;;;8.75;;
36449;SDS011;22475;51.390;7.180;2023-12-14T08:29:41;15.32;;;9.98;;
36449;SDS011;22475;51.390;7.180;2023-12-14T08:32:09;13.48;;;9.80;;
36449;SDS011;22475;51.390;7.180;2023-12-14T08:34:36;17.17;;;11.57;;
36449;SDS011;22475;51.390;7.180;2023-12-14T08:37:03;17.13;;;11.02;;
36449;SDS011;22475;51.390;7.180;2023-12-14T08:39:30;15.90;;;11.30;;
36449;SDS011;22475;51.390;7.180;2023-12-14T08:41:58;15.02;;;11.25;;
36449;SDS011;22475;51.390;7.180;2023-12-14T08:44:25;15.23;;;11.25;;
36449;SDS011;22475;51.390;7.180;2023-12-14T08:46:52;15.27;;;11.15;;
36449;SDS011;22475;51.390;7.180;2023-12-14T08:49:19;20.42;;;12.10;;
36449;SDS011;22475;51.390;7.180;2023-12-14T08:51:48;16.85;;;10.57;;
36449;SDS011;22475;51.390;7.180;2023-12-14T08:54:14;18.58;;;11.52;;
36449;SDS011;22475;51.390;7.180;2023-12-14T08:56:42;17.50;;;12.13;;
36449;SDS011;22475;51.390;7.180;2023-12-14T08:59:10;16.33;;;10.60;;
36449;SDS011;22475;51.390;7.180;2023-12-14T09:01:37;18.92;;;10.80;;
36449;SDS011;22475;51.390;7.180;2023-12-14T09:04:04;20.63;;;10.35;;
36449;SDS011;22475;51.390;7.180;2023-12-14T09:06:31;13.43;;;10.45;;
36449;SDS011;22475;51.390;7.180;2023-12-14T09:08:57;13.63;;;10.30;;
36449;SDS011;22475;51.390;7.180;2023-12-14T09:11:24;15.48;;;9.70;;
36449;SDS011;22475;51.390;7.180;2023-12-14T09:13:51;17.45;;;10.10;;
36449;SDS011;22475;51.390;7.180;2023-12-14T09:16:19;14.02;;;10.93;;
36449;SDS011;22475;51.390;7.180;2023-12-14T09:18:46;11.05;;;9.20;;
36449;SDS011;22475;51.390;7.180;2023-12-14T09:21:13;15.25;;;11.95;;
36449;SDS011;22475;51.390;7.180;2023-12-14T09:23:40;13.35;;;9.43;;
36449;SDS011;22475;51.390;7.180;2023-12-14T09:26:06;13.88;;;10.30;;
36449;SDS011;22475;51.390;7.180;2023-12-14T09:28:33;13.02;;;10.55;;
36449;SDS011;22475;51.390;7.180;2023-12-14T09:31:00;18.75;;;11.35;;
36449;SDS011;22475;51.390;7.180;2023-12-14T09:33:28;15.25;;;10.27;;
36449;SDS011;22475;51.390;7.180;2023-12-14T09:35:55;15.50;;;10.93;;
36449;SDS011;22475;51.390;7.180;2023-12-14T09:38:22;22.55;;;12.25;;
36449;SDS011;22475;51.390;7.180;2023-12-14T09:40:48;16.27;;;10.10;;
36449;SDS011;22475;51.390;7.180;2023-12-14T09:43:15;20.98;;;12.82;;
36449;SDS011;22475;51.390;7.180;2023-12-14T09:45:42;22.90;;;13.30;;
36449;SDS011;22475;51.390;7.180;2023-12-14T09:48:10;20.33;;;13.02;;
36449;SDS011;22475;51.390;7.180;2023-12-14T09:50:39;19.05;;;13.02;;
36449;SDS011;22475;51.390;7.180;2023-12-14T09:53:06;19.90;;;13.35;;
36449;SDS011;22475;51.390;7.180;2023-12-14T09:55:33;26.95;;;14.45;;
36449;SDS011;22475;51.390;7.180;2023-12-14T09:58:00;22.98;;;14.95;;
36449;SDS011;22475;51.390;7.180;2023-12-14T10:00:34;24.23;;;14.60;;
36449;SDS011;22475;51.390;7.180;2023-12-14T10:03:18;20.45;;;13.48;;
36449;SDS011;22475;51.390;7.180;2023-12-14T10:05:50;23.10;;;13.88;;
36449;SDS011;22475;51.390;7.180;2023-12-14T10:08:17;20.25;;;12.57;;
36449;SDS011;22475;51.390;7.180;2023-12-14T10:10:44;24.85;;;13.10;;
36449;SDS011;22475;51.390;7.180;2023-12-14T10:13:14;17.02;;;12.02;;
36449;SDS011;22475;51.390;7.180;2023-12-14T10:15:41;17.15;;;11.60;;
36449;SDS011;22475;51.390;7.180;2023-12-14T10:18:08;19.08;;;11.50;;
36449;SDS011;22475;51.390;7.180;2023-12-14T10:20:34;19.65;;;11.32;;
36449;SDS011;22475;51.390;7.180;2023-12-14T10:23:04;18.60;;;11.25;;
36449;SDS011;22475;51.390;7.180;2023-12-14T10:25:31;14.95;;;10.55;;
36449;SDS011;22475;51.390;7.180;2023-12-14T10:27:58;20.55;;;12.05;;
36449;SDS011;22475;51.390;7.180;2023-12-14T10:30:27;15.82;;;10.95;;
36449;SDS011;22475;51.390;7.180;2023-12-14T10:32:55;18.10;;;11.48;;
36449;SDS011;22475;51.390;7.180;2023-12-14T10:35:22;18.52;;;12.43;;
36449;SDS011;22475;51.390;7.180;2023-12-14T10:37:49;18.63;;;11.93;;
36449;SDS011;22475;51.390;7.180;2023-12-14T10:40:18;20.90;;;12.98;;
36449;SDS011;22475;51.390;7.180;2023-12-14T10:42:46;18.08;;;11.93;;
36449;SDS011;22475;51.390;7.180;2023-12-14T10:45:15;20.52;;;14.02;;
36449;SDS011;22475;51.390;7.180;2023-12-14T10:47:45;16.63;;;12.20;;
36449;SDS011;22475;51.390;7.180;2023-12-14T10:50:14;19.65;;;11.85;;
36449;SDS011;22475;51.390;7.180;2023-12-14T10:52:41;18.88;;;13.20;;
36449;SDS011;22475;51.390;7.180;2023-12-14T10:55:12;20.10;;;12.50;;
36449;SDS011;22475;51.390;7.180;2023-12-14T10:57:46;22.65;;;13.60;;
36449;SDS011;22475;51.390;7.180;2023-12-14T11:00:13;15.95;;;12.32;;
36449;SDS011;22475;51.390;7.180;2023-12-14T11:02:45;17.87;;;13.17;;
36449;SDS011;22475;51.390;7.180;2023-12-14T11:05:12;17.35;;;12.27;;
36449;SDS011;22475;51.390;7.180;2023-12-14T11:07:49;16.90;;;12.55;;
36449;SDS011;22475;51.390;7.180;2023-12-14T11:10:20;26.40;;;14.43;;
36449;SDS011;22475;51.390;7.180;2023-12-14T11:12:52;19.30;;;13.50;;
36449;SDS011;22475;51.390;7.180;2023-12-14T11:15:22;18.00;;;13.93;;
36449;SDS011;22475;51.390;7.180;2023-12-14T11:20:56;15.82;;;12.23;;
36449;SDS011;22475;51.390;7.180;2023-12-14T11:23:32;15.68;;;12.73;;
36449;SDS011;22475;51.390;7.180;2023-12-14T11:26:02;20.67;;;13.45;;
36449;SDS011;22475;51.390;7.180;2023-12-14T11:28:31;17.38;;;13.48;;
36449;SDS011;22475;51.390;7.180;2023-12-14T11:30:59;21.92;;;12.23;;
36449;SDS011;22475;51.390;7.180;2023-12-14T11:33:27;17.90;;;12.13;;
36449;SDS011;22475;51.390;7.180;2023-12-14T11:35:54;16.75;;;12.05;;
36449;SDS011;22475;51.390;7.180;2023-12-14T11:38:22;17.85;;;12.10;;
36449;SDS011;22475;51.390;7.180;2023-12-14T11:40:50;17.88;;;12.50;;
36449;SDS011;22475;51.390;7.180;2023-12-14T11:43:17;16.67;;;12.52;;
36449;SDS011;22475;51.390;7.180;2023-12-14T11:45:47;18.90;;;13.15;;
36449;SDS011;22475;51.390;7.180;2023-12-14T11:48:14;18.05;;;13.45;;
36449;SDS011;22475;51.390;7.180;2023-12-14T11:50:41;18.00;;;13.18;;
36449;SDS011;22475;51.390;7.180;2023-12-14T11:53:09;22.73;;;12.77;;
36449;SDS011;22475;51.390;7.180;2023-12-14T11:55:36;21.60;;;13.27;;
36449;SDS011;22475;51.390;7.180;2023-12-14T11:58:05;14.90;;;11.98;;
36449;SDS011;22475;51.390;7.180;2023-12-14T12:00:33;14.80;;;11.63;;
36449;SDS011;22475;51.390;7.180;2023-12-14T12:03:13;15.40;;;10.85;;
36449;SDS011;22475;51.390;7.180;2023-12-14T12:05:41;15.57;;;9.90;;
36449;SDS011;22475;51.390;7.180;2023-12-14T12:08:09;18.00;;;10.63;;
36449;SDS011;22475;51.390;7.180;2023-12-14T12:10:37;12.13;;;8.95;;
36449;SDS011;22475;51.390;7.180;2023-12-14T12:13:06;14.65;;;10.98;;
36449;SDS011;22475;51.390;7.180;2023-12-14T12:15:34;12.68;;;9.38;;
36449;SDS011;22475;51.390;7.180;2023-12-14T12:18:02;14.80;;;8.70;;
36449;SDS011;22475;51.390;7.180;2023-12-14T12:20:31;13.40;;;8.65;;
36449;SDS011;22475;51.390;7.180;2023-12-14T12:22:58;10.80;;;7.75;;
36449;SDS011;22475;51.390;7.180;2023-12-14T12:25:25;10.52;;;7.55;;
36449;SDS011;22475;51.390;7.180;2023-12-14T12:27:52;10.07;;;7.70;;
36449;SDS011;22475;51.390;7.180;2023-12-14T12:30:20;10.00;;;7.90;;
36449;SDS011;22475;51.390;7.180;2023-12-14T12:32:47;9.50;;;6.88;;
36449;SDS011;22475;51.390;7.180;2023-12-14T12:35:14;9.15;;;7.07;;
36449;SDS011;22475;51.390;7.180;2023-12-14T12:37:43;8.10;;;7.25;;
36449;SDS011;22475;51.390;7.180;2023-12-14T12:40:10;12.90;;;8.70;;
36449;SDS011;22475;51.390;7.180;2023-12-14T12:42:37;8.93;;;6.70;;
36449;SDS011;22475;51.390;7.180;2023-12-14T12:45:04;9.68;;;6.80;;
36449;SDS011;22475;51.390;7.180;2023-12-14T12:47:31;8.68;;;7.50;;
36449;SDS011;22475;51.390;7.180;2023-12-14T12:49:58;12.45;;;6.75;;
36449;SDS011;22475;51.390;7.180;2023-12-14T12:52:25;11.48;;;6.80;;
36449;SDS011;22475;51.390;7.180;2023-12-14T12:54:53;8.20;;;7.35;;
36449;SDS011;22475;51.390;7.180;2023-12-14T12:57:19;13.88;;;8.82;;
36449;SDS011;22475;51.390;7.180;2023-12-14T12:59:46;8.90;;;7.15;;
36449;SDS011;22475;51.390;7.180;2023-12-14T13:02:13;13.23;;;8.50;;
36449;SDS011;22475;51.390;7.180;2023-12-14T13:04:40;12.93;;;8.20;;
36449;SDS011;22475;51.390;7.180;2023-12-14T13:07:07;9.20;;;8.30;;
36449;SDS011;22475;51.390;7.180;2023-12-14T13:09:34;8.10;;;7.30;;
36449;SDS011;22475;51.390;7.180;2023-12-14T13:12:04;17.25;;;8.32;;
36449;SDS011;22475;51.390;7.180;2023-12-14T13:14:31;10.50;;;8.75;;
36449;SDS011;22475;51.390;7.180;2023-12-14T13:16:57;9.93;;;7.82;;
36449;SDS011;22475;51.390;7.180;2023-12-14T13:19:24;11.02;;;7.55;;
36449;SDS011;22475;51.390;7.180;2023-12-14T13:21:52;11.57;;;9.10;;
36449;SDS011;22475;51.390;7.180;2023-12-14T13:24:19;10.95;;;7.80;;
36449;SDS011;22475;51.390;7.180;2023-12-14T13:26:46;9.88;;;8.05;;
36449;SDS011;22475;51.390;7.180;2023-12-14T13:29:14;11.55;;;9.02;;
36449;SDS011;22475;51.390;7.180;2023-12-14T13:31:41;10.00;;;7.07;;
36449;SDS011;22475;51.390;7.180;2023-12-14T13:34:07;8.50;;;7.35;;
36449;SDS011;22475;51.390;7.180;2023-12-14T13:36:34;17.77;;;8.07;;
36449;SDS011;22475;51.390;7.180;2023-12-14T13:39:01;15.63;;;7.57;;
36449;SDS011;22475;51.390;7.180;2023-12-14T13:41:28;8.75;;;7.20;;
36449;SDS011;22475;51.390;7.180;2023-12-14T13:43:58;17.73;;;7.82;;
36449;SDS011;22475;51.390;7.180;2023-12-14T13:46:27;10.93;;;7.68;;
36449;SDS011;22475;51.390;7.180;2023-12-14T13:48:53;8.85;;;7.88;;
36449;SDS011;22475;51.390;7.180;2023-12-14T13:51:20;12.13;;;8.18;;
36449;SDS011;22475;51.390;7.180;2023-12-14T13:53:47;9.50;;;8.43;;
36449;SDS011;22475;51.390;7.180;2023-12-14T13:56:13;11.50;;;7.68;;
36449;SDS011;22475;51.390;7.180;2023-12-14T13:58:40;7.43;;;6.72;;
36449;SDS011;22475;51.390;7.180;2023-12-14T14:01:07;7.40;;;6.65;;
36449;SDS011;22475;51.390;7.180;2023-12-14T14:03:35;9.27;;;7.03;;
36449;SDS011;22475;51.390;7.180;2023-12-14T14:06:03;9.82;;;6.45;;
36449;SDS011;22475;51.390;7.180;2023-12-14T14:08:31;11.45;;;6.25;;
36449;SDS011;22475;51.390;7.180;2023-12-14T14:10:57;7.50;;;5.68;;
36449;SDS011;22475;51.390;7.180;2023-12-14T14:13:25;9.32;;;6.25;;
36449;SDS011;22475;51.390;7.180;2023-12-14T14:15:52;8.52;;;5.82;;
36449;SDS011;22475;51.390;7.180;2023-12-14T14:18:19;9.23;;;6.82;;
36449;SDS011;22475;51.390;7.180;2023-12-14T14:20:48;9.70;;;5.50;;
36449;SDS011;22475;51.390;7.180;2023-12-14T14:23:15;6.57;;;5.85;;
36449;SDS011;22475;51.390;7.180;2023-12-14T14:25:42;9.13;;;6.70;;
36449;SDS011;22475;51.390;7.180;2023-12-14T14:28:09;8.73;;;6.13;;
36449;SDS011;22475;51.390;7.180;2023-12-14T14:30:35;12.57;;;6.15;;
36449;SDS011;22475;51.390;7.180;2023-12-14T14:33:02;6.80;;;5.88;;
36449;SDS011;22475;51.390;7.180;2023-12-14T14:35:29;11.82;;;5.75;;
36449;SDS011;22475;51.390;7.180;2023-12-14T14:37:59;8.05;;;5.47;;